Time;durP1;ratioP1;P1;durP2;ratioP2;P2;SDS_P1;SDS_P2;PMS_P1;PMS_P2;Temp;Humidity;BMP_temperature;BMP_pressure;BME280_temperature;BME280_humidity;BME280_pressure;Samples;Min_cycle;Max_cycle;Signal;HPM_P1;HPM_P2
2021/12/06 00:02:08;;;;;;;11.15;9.32;;;3.40;99.90;;;;;;4960793;28;20296;-78
2021/12/06 00:04:48;;;;;;;11.65;9.73;;;3.50;99.90;;;;;;4965935;29;20205;-77
2021/12/06 00:10:21;;;;;;;10.13;8.40;;;3.60;99.90;;;;;;4949563;28;20252;-77
2021/12/06 00:12:48;;;;;;;14.25;9.45;;;3.50;99.90;;;;;;4961925;29;20244;-78
2021/12/06 00:15:18;;;;;;;11.43;9.18;;;3.50;99.90;;;;;;4963132;29;20244;-77
2021/12/06 00:17:47;;;;;;;11.75;9.00;;;3.50;99.90;;;;;;4964057;29;20245;-77
2021/12/06 00:20:50;;;;;;;10.05;8.27;;;3.40;99.90;;;;;;4972905;28;20217;-78
2021/12/06 00:23:17;;;;;;;12.02;9.13;;;3.20;99.90;;;;;;4962883;29;20211;-78
2021/12/06 00:25:44;;;;;;;11.38;8.60;;;3.00;99.90;;;;;;4967763;28;20228;-77
2021/12/06 00:28:32;;;;;;;10.10;7.97;;;2.90;99.90;;;;;;4973176;28;20665;-78
2021/12/06 00:31:00;;;;;;;13.05;8.32;;;2.80;99.90;;;;;;4973983;28;20221;-76
2021/12/06 00:33:37;;;;;;;12.10;8.63;;;2.80;99.90;;;;;;4976554;29;20212;-78
2021/12/06 00:36:15;;;;;;;14.07;9.18;;;2.70;99.90;;;;;;4971088;28;20215;-78
2021/12/06 00:38:45;;;;;;;12.35;9.45;;;2.60;99.90;;;;;;4973156;28;20235;-78
2021/12/06 00:41:26;;;;;;;14.45;10.52;;;2.50;99.90;;;;;;4973406;28;20302;-77
2021/12/06 00:43:55;;;;;;;14.45;9.98;;;2.50;99.90;;;;;;4973760;28;20267;-78
2021/12/06 00:46:24;;;;;;;12.30;9.55;;;2.50;99.90;;;;;;4971465;28;20213;-78
2021/12/06 00:48:53;;;;;;;12.73;10.43;;;2.50;99.90;;;;;;4974688;29;20209;-77
2021/12/06 00:51:20;;;;;;;13.05;9.73;;;2.50;99.90;;;;;;4969077;28;20237;-76
2021/12/06 00:53:48;;;;;;;11.48;9.20;;;2.40;99.90;;;;;;4974655;28;20213;-77
2021/12/06 00:56:14;;;;;;;12.85;9.73;;;2.40;99.90;;;;;;4978102;29;20213;-78
2021/12/06 00:58:43;;;;;;;20.20;10.30;;;2.50;99.90;;;;;;4976796;29;20212;-76
2021/12/06 01:01:11;;;;;;;12.70;9.10;;;2.50;99.90;;;;;;4976192;28;20617;-79
2021/12/06 01:03:40;;;;;;;11.65;8.90;;;2.50;99.90;;;;;;4975527;28;20259;-79
2021/12/06 01:06:16;;;;;;;13.75;10.38;;;2.60;99.90;;;;;;4972262;28;20233;-77
2021/12/06 01:08:43;;;;;;;12.30;9.45;;;2.60;99.90;;;;;;4968718;28;20212;-80
2021/12/06 01:11:10;;;;;;;12.23;9.02;;;2.60;99.90;;;;;;4976339;28;20229;-79
2021/12/06 01:13:38;;;;;;;16.13;10.02;;;2.70;99.90;;;;;;4972892;28;20217;-77
2021/12/06 01:16:07;;;;;;;16.95;12.45;;;2.70;99.90;;;;;;4974853;29;20221;-79
2021/12/06 01:18:35;;;;;;;16.50;11.88;;;2.70;99.90;;;;;;4976498;29;20216;-78
2021/12/06 01:21:12;;;;;;;18.15;13.10;;;2.70;99.90;;;;;;4970518;28;20244;-78
2021/12/06 01:23:50;;;;;;;19.45;12.40;;;2.60;99.90;;;;;;4966259;28;20204;-78
2021/12/06 01:26:36;;;;;;;18.15;12.27;;;2.60;99.90;;;;;;4963813;28;20224;-79
2021/12/06 01:29:26;;;;;;;16.55;11.40;;;2.50;99.90;;;;;;4967983;29;20681;-79
2021/12/06 01:32:00;;;;;;;17.23;10.65;;;2.60;99.90;;;;;;4969447;28;20230;-78
2021/12/06 01:40:08;;;;;;;17.52;12.25;;;2.60;99.90;;;;;;4967649;28;20213;-79
2021/12/06 01:42:36;;;;;;;15.48;11.30;;;2.60;99.90;;;;;;4964371;28;20234;-77
2021/12/06 01:45:59;;;;;;;17.50;11.48;;;2.70;99.90;;;;;;4972288;28;20201;-79
2021/12/06 01:48:26;;;;;;;15.82;12.23;;;2.70;99.90;;;;;;4963680;29;20216;-78
2021/12/06 01:51:26;;;;;;;14.07;11.07;;;2.70;99.90;;;;;;4971708;28;20289;-78
2021/12/06 01:54:19;;;;;;;19.75;10.80;;;2.70;99.90;;;;;;4970907;28;20208;-77
2021/12/06 01:57:21;;;;;;;16.35;11.43;;;2.80;99.90;;;;;;4971763;29;20210;-78
2021/12/06 01:59:49;;;;;;;15.30;10.50;;;2.90;99.90;;;;;;4964675;29;20221;-78
2021/12/06 02:02:17;;;;;;;14.07;10.93;;;2.90;99.90;;;;;;4965076;28;20866;-78
2021/12/06 02:05:14;;;;;;;14.80;10.90;;;2.90;99.90;;;;;;4966954;28;20216;-78
2021/12/06 02:07:45;;;;;;;17.92;10.90;;;2.90;99.90;;;;;;4966358;28;20248;-78
2021/12/06 02:10:12;;;;;;;11.27;9.95;;;3.00;99.90;;;;;;4965798;29;20241;-79
2021/12/06 02:12:47;;;;;;;12.45;10.02;;;3.00;99.90;;;;;;4965249;28;20352;-79
2021/12/06 02:15:31;;;;;;;14.88;10.40;;;3.00;99.90;;;;;;4964818;29;20216;-78
2021/12/06 02:18:10;;;;;;;12.45;10.23;;;3.00;99.90;;;;;;4966312;28;20209;-77
2021/12/06 02:20:45;;;;;;;14.88;10.65;;;3.00;99.90;;;;;;4967841;28;20268;-78
2021/12/06 02:23:13;;;;;;;13.85;11.50;;;3.00;99.90;;;;;;4961956;29;20225;-78
2021/12/06 02:25:43;;;;;;;12.00;9.90;;;3.00;99.90;;;;;;4961855;29;20213;-79
2021/12/06 02:28:11;;;;;;;12.80;10.73;;;3.00;99.90;;;;;;4963759;29;20206;-78
2021/12/06 02:30:38;;;;;;;17.17;10.70;;;3.00;99.90;;;;;;4970135;28;20240;-78
2021/12/06 02:33:05;;;;;;;13.93;10.30;;;2.90;99.90;;;;;;4974397;28;20232;-77
2021/12/06 02:35:32;;;;;;;11.93;9.32;;;3.00;99.90;;;;;;4973830;29;20248;-77
2021/12/06 02:38:02;;;;;;;13.73;10.57;;;3.10;99.90;;;;;;4974643;28;20233;-76
2021/12/06 02:40:34;;;;;;;17.10;12.90;;;3.10;99.90;;;;;;4969631;28;20265;-76
2021/12/06 02:43:04;;;;;;;15.77;12.55;;;3.10;99.90;;;;;;4962828;28;20304;-78
2021/12/06 02:45:32;;;;;;;14.70;11.98;;;3.00;99.90;;;;;;4966284;29;20190;-77
2021/12/06 02:48:03;;;;;;;17.50;12.73;;;3.00;99.90;;;;;;4975566;28;20213;-77
2021/12/06 02:50:35;;;;;;;13.73;11.10;;;3.00;99.90;;;;;;4974337;28;20224;-75
2021/12/06 02:53:02;;;;;;;18.75;12.43;;;3.00;99.90;;;;;;4973386;28;20205;-77
2021/12/06 02:55:42;;;;;;;16.13;11.90;;;3.00;99.90;;;;;;4969383;28;20293;-78
2021/12/06 02:58:17;;;;;;;12.55;10.15;;;3.00;99.90;;;;;;4968695;29;20291;-78
2021/12/06 03:00:48;;;;;;;14.98;12.00;;;3.00;99.90;;;;;;4976398;28;20266;-80
2021/12/06 03:03:16;;;;;;;13.90;11.18;;;2.80;99.90;;;;;;4977244;29;20220;-79
2021/12/06 03:05:43;;;;;;;15.32;11.00;;;2.80;99.90;;;;;;4977064;29;20236;-79
2021/12/06 03:08:10;;;;;;;13.23;11.00;;;2.90;99.90;;;;;;4976456;28;20233;-79
2021/12/06 03:10:40;;;;;;;14.82;10.60;;;2.90;99.90;;;;;;4973747;28;20268;-78
2021/12/06 03:13:07;;;;;;;14.63;10.75;;;2.90;99.90;;;;;;4974247;29;20229;-78
2021/12/06 03:15:34;;;;;;;13.80;10.38;;;2.90;99.90;;;;;;4975610;28;20220;-79
2021/12/06 03:18:01;;;;;;;14.07;10.00;;;2.90;99.90;;;;;;4972862;29;20254;-77
2021/12/06 03:20:31;;;;;;;13.55;10.68;;;2.90;99.90;;;;;;4975636;28;20240;-78
2021/12/06 03:23:03;;;;;;;13.13;9.85;;;3.00;99.90;;;;;;4973105;29;20263;-78
2021/12/06 03:25:31;;;;;;;13.85;10.48;;;3.00;99.90;;;;;;4976898;28;20263;-78
2021/12/06 03:28:03;;;;;;;15.07;10.73;;;3.00;99.90;;;;;;4976952;29;20216;-79
2021/12/06 03:30:30;;;;;;;17.35;10.68;;;2.90;99.90;;;;;;4961572;28;20301;-79
2021/12/06 03:32:57;;;;;;;13.48;10.35;;;2.90;99.90;;;;;;4955075;29;20245;-77
2021/12/06 03:35:24;;;;;;;14.43;9.90;;;3.00;99.90;;;;;;4955803;28;20209;-77
2021/12/06 03:37:51;;;;;;;16.10;10.52;;;3.00;99.90;;;;;;4955482;28;20210;-77
2021/12/06 03:40:18;;;;;;;14.10;10.10;;;2.90;99.90;;;;;;4954934;28;20276;-77
2021/12/06 03:42:45;;;;;;;12.63;10.30;;;2.90;99.90;;;;;;4955146;29;20229;-77
2021/12/06 03:45:15;;;;;;;12.85;10.07;;;2.80;99.90;;;;;;4955252;28;20225;-78
2021/12/06 03:47:42;;;;;;;13.40;10.60;;;2.80;99.90;;;;;;4954787;29;20240;-78
2021/12/06 03:50:11;;;;;;;18.17;11.10;;;2.70;99.90;;;;;;4955874;29;20209;-78
2021/12/06 03:52:39;;;;;;;15.57;11.77;;;2.70;99.90;;;;;;4957759;28;20266;-78
2021/12/06 03:55:08;;;;;;;15.73;12.18;;;2.60;99.90;;;;;;4957212;29;20581;-78
2021/12/06 03:57:35;;;;;;;15.80;11.93;;;2.50;99.90;;;;;;4956315;29;20307;-78
2021/12/06 04:00:05;;;;;;;16.65;12.00;;;2.40;99.90;;;;;;4955468;29;20249;-78
2021/12/06 04:02:34;;;;;;;17.20;12.00;;;2.40;99.90;;;;;;4954574;28;20241;-79
2021/12/06 04:05:01;;;;;;;18.17;13.38;;;2.40;99.90;;;;;;4955011;29;20221;-79
2021/12/06 04:07:28;;;;;;;20.58;12.27;;;2.50;99.90;;;;;;4956116;28;20268;-79
2021/12/06 04:09:55;;;;;;;21.60;13.70;;;2.60;99.90;;;;;;4957575;29;20695;-78
2021/12/06 04:12:22;;;;;;;25.27;14.68;;;2.70;99.90;;;;;;4956460;28;20232;-77
2021/12/06 04:14:51;;;;;;;29.00;15.38;;;2.80;99.90;;;;;;4955104;28;20765;-77
2021/12/06 04:17:19;;;;;;;29.00;15.20;;;2.80;99.90;;;;;;4960912;28;20224;-76
2021/12/06 04:19:47;;;;;;;22.67;13.90;;;2.80;99.90;;;;;;4955223;29;20234;-76
2021/12/06 04:22:15;;;;;;;24.58;13.93;;;2.80;99.90;;;;;;4955359;28;20232;-76
2021/12/06 04:24:42;;;;;;;28.65;14.45;;;2.90;99.90;;;;;;4961431;28;20277;-77
2021/12/06 04:27:14;;;;;;;27.88;16.05;;;2.90;99.90;;;;;;4969699;29;20283;-78
2021/12/06 04:29:42;;;;;;;24.65;12.63;;;3.00;99.90;;;;;;4971212;28;20743;-77
2021/12/06 04:32:10;;;;;;;28.52;14.25;;;3.10;99.90;;;;;;4966085;28;20264;-77
2021/12/06 04:34:37;;;;;;;25.63;13.27;;;3.10;99.90;;;;;;4965818;28;20225;-76
2021/12/06 04:37:06;;;;;;;38.28;15.02;;;3.10;99.90;;;;;;4967278;28;20240;-77
2021/12/06 04:39:34;;;;;;;25.15;11.68;;;3.10;99.90;;;;;;4964451;29;20713;-77
2021/12/06 04:42:02;;;;;;;23.15;12.90;;;3.10;99.90;;;;;;4954240;28;20226;-77
2021/12/06 04:44:30;;;;;;;26.92;12.45;;;3.10;99.90;;;;;;4956840;28;20213;-78
2021/12/06 04:46:57;;;;;;;29.92;13.00;;;3.10;99.90;;;;;;4969415;28;20210;-78
2021/12/06 04:49:27;;;;;;;30.25;13.85;;;3.10;99.90;;;;;;4958942;28;20219;-77
2021/12/06 04:51:56;;;;;;;27.70;14.70;;;3.10;99.90;;;;;;4958135;28;20289;-78
2021/12/06 04:54:29;;;;;;;22.20;12.20;;;3.20;99.90;;;;;;4958180;28;20308;-79
2021/12/06 04:56:59;;;;;;;26.63;12.35;;;3.30;99.90;;;;;;4958156;28;20219;-79
2021/12/06 04:59:30;;;;;;;31.20;14.02;;;3.20;99.90;;;;;;4958050;28;20301;-78
2021/12/06 05:02:00;;;;;;;33.38;13.75;;;3.20;99.90;;;;;;5002500;23;20328;-80
2021/12/06 05:04:32;;;;;;;27.90;13.45;;;3.30;99.90;;;;;;4999784;28;20188;-80
2021/12/06 05:07:03;;;;;;;33.25;14.77;;;3.30;99.90;;;;;;5000370;28;20262;-80
2021/12/06 05:09:34;;;;;;;28.05;13.35;;;3.40;99.90;;;;;;5003459;28;20262;-80
2021/12/06 05:12:02;;;;;;;33.60;14.15;;;3.30;99.90;;;;;;5007912;28;20233;-79
2021/12/06 05:14:29;;;;;;;30.83;13.25;;;3.30;99.90;;;;;;5009001;28;20231;-78
2021/12/06 05:16:56;;;;;;;32.42;12.57;;;3.30;99.90;;;;;;5012005;28;20280;-77
2021/12/06 05:19:23;;;;;;;34.28;13.00;;;3.30;99.90;;;;;;5013017;28;20204;-78
2021/12/06 05:21:50;;;;;;;29.58;13.35;;;3.30;99.90;;;;;;5016821;28;20395;-78
2021/12/06 05:24:18;;;;;;;32.65;14.32;;;3.20;99.90;;;;;;5012510;28;20272;-79
2021/12/06 05:26:47;;;;;;;39.30;15.02;;;3.20;99.90;;;;;;5001015;28;20572;-80
2021/12/06 05:29:19;;;;;;;34.30;13.73;;;3.30;99.90;;;;;;4999853;28;20610;-81
2021/12/06 05:31:54;;;;;;;34.25;13.18;;;3.30;99.90;;;;;;5000207;28;20314;-81
2021/12/06 05:34:28;;;;;;;28.55;13.43;;;3.20;99.90;;;;;;5001255;28;20208;-79
2021/12/06 05:36:55;;;;;;;29.15;13.15;;;3.20;99.90;;;;;;5007549;28;20665;-79
2021/12/06 05:39:22;;;;;;;26.67;12.68;;;3.20;99.90;;;;;;5002419;28;20208;-79
2021/12/06 05:41:51;;;;;;;32.13;14.40;;;3.20;99.90;;;;;;4998906;28;20263;-80
2021/12/06 05:44:18;;;;;;;32.22;14.15;;;3.20;99.90;;;;;;5002667;28;20243;-80
2021/12/06 05:46:45;;;;;;;29.63;13.52;;;3.20;99.90;;;;;;5015466;28;20203;-80
2021/12/06 05:49:11;;;;;;;30.55;13.90;;;3.30;99.90;;;;;;5012575;28;20221;-78
2021/12/06 05:51:38;;;;;;;25.20;12.75;;;3.30;99.90;;;;;;5016178;28;20228;-78
2021/12/06 05:54:05;;;;;;;28.98;12.95;;;3.30;99.90;;;;;;5008463;28;20220;-79
2021/12/06 05:56:33;;;;;;;28.15;13.05;;;3.30;99.90;;;;;;4999629;28;20298;-78
2021/12/06 05:59:01;;;;;;;38.97;14.73;;;3.20;99.90;;;;;;4999938;28;20212;-80
2021/12/06 06:01:30;;;;;;;27.08;12.93;;;3.20;99.90;;;;;;4999172;28;20236;-80
2021/12/06 06:04:00;;;;;;;32.25;15.23;;;3.30;99.90;;;;;;4999971;28;20270;-80
2021/12/06 06:06:28;;;;;;;30.02;13.55;;;3.20;99.90;;;;;;4999959;28;20598;-79
2021/12/06 06:08:56;;;;;;;39.10;13.88;;;3.20;99.90;;;;;;4999747;28;20212;-79
2021/12/06 06:11:22;;;;;;;33.53;13.88;;;3.30;99.90;;;;;;4999889;28;20729;-79
2021/12/06 06:13:49;;;;;;;32.72;12.90;;;3.30;99.90;;;;;;5000846;28;20235;-79
2021/12/06 06:16:20;;;;;;;32.72;14.15;;;3.30;99.90;;;;;;5000711;28;20211;-79
2021/12/06 06:18:48;;;;;;;27.85;13.45;;;3.30;99.90;;;;;;5000426;28;20307;-80
2021/12/06 06:21:16;;;;;;;30.77;13.75;;;3.20;99.90;;;;;;5000590;28;20275;-79
2021/12/06 06:23:43;;;;;;;25.95;13.50;;;3.30;99.90;;;;;;5005761;28;20233;-80
2021/12/06 06:26:10;;;;;;;28.42;13.55;;;3.30;99.90;;;;;;5008297;28;20212;-79
2021/12/06 06:28:37;;;;;;;29.35;11.32;;;3.30;99.90;;;;;;5004469;28;20217;-80
2021/12/06 06:31:04;;;;;;;28.08;12.15;;;3.40;99.90;;;;;;5008521;28;20305;-77
2021/12/06 06:33:33;;;;;;;27.02;11.57;;;3.30;99.90;;;;;;5011726;28;20727;-78
2021/12/06 06:36:00;;;;;;;19.23;10.98;;;3.30;99.90;;;;;;5010969;28;20240;-79
2021/12/06 06:38:27;;;;;;;24.70;11.82;;;3.40;99.90;;;;;;5010192;28;20197;-78
2021/12/06 06:40:54;;;;;;;22.05;11.50;;;3.40;99.90;;;;;;5005505;28;20204;-79
2021/12/06 06:43:21;;;;;;;26.02;12.10;;;3.40;99.90;;;;;;5003447;28;20295;-79
2021/12/06 06:45:48;;;;;;;25.25;12.88;;;3.40;99.90;;;;;;5009100;28;20208;-78
2021/12/06 06:48:15;;;;;;;22.15;11.60;;;3.40;99.90;;;;;;5008107;28;20235;-81
2021/12/06 06:50:43;;;;;;;26.00;11.15;;;3.30;99.90;;;;;;5006901;28;20286;-79
2021/12/06 06:53:10;;;;;;;22.00;11.48;;;3.30;99.90;;;;;;5006706;28;20639;-81
2021/12/06 06:55:38;;;;;;;25.65;12.65;;;3.30;99.90;;;;;;5005119;28;20232;-79
2021/12/06 06:58:04;;;;;;;23.38;11.73;;;3.30;99.90;;;;;;4998919;28;20267;-79
2021/12/06 07:00:36;;;;;;;26.75;13.40;;;3.30;99.90;;;;;;4999021;28;20207;-79
2021/12/06 07:03:04;;;;;;;28.25;12.75;;;3.20;99.90;;;;;;4999315;28;20228;-79
2021/12/06 07:05:31;;;;;;;31.10;12.57;;;3.20;99.90;;;;;;5005693;28;20213;-79
2021/12/06 07:08:00;;;;;;;29.42;12.05;;;3.20;99.90;;;;;;5000775;28;20246;-79
2021/12/06 07:10:27;;;;;;;27.33;12.05;;;3.20;99.90;;;;;;5003223;28;20211;-80
2021/12/06 07:12:55;;;;;;;21.90;10.68;;;3.20;99.90;;;;;;5006596;28;20290;-80
2021/12/06 07:15:26;;;;;;;27.52;11.32;;;3.20;99.90;;;;;;5005488;28;20626;-79
2021/12/06 07:17:54;;;;;;;24.02;11.70;;;3.30;99.90;;;;;;4999655;28;20629;-79
2021/12/06 07:20:22;;;;;;;25.13;10.40;;;3.30;99.90;;;;;;5001212;28;20212;-79
2021/12/06 07:22:51;;;;;;;22.33;10.80;;;3.30;99.90;;;;;;5001032;28;20235;-79
2021/12/06 07:25:21;;;;;;;28.75;11.30;;;3.30;99.90;;;;;;5001831;28;20306;-78
2021/12/06 07:27:49;;;;;;;26.08;11.63;;;3.40;99.90;;;;;;5001674;28;20294;-79
2021/12/06 07:30:17;;;;;;;25.52;11.15;;;3.40;99.90;;;;;;5005045;28;20207;-78
2021/12/06 07:32:45;;;;;;;23.95;10.75;;;3.40;99.90;;;;;;5015334;28;20247;-78
2021/12/06 07:35:12;;;;;;;29.92;12.45;;;3.30;99.90;;;;;;5016691;28;20236;-77
2021/12/06 07:37:40;;;;;;;28.58;12.07;;;3.30;99.90;;;;;;5016790;28;20219;-77
2021/12/06 07:40:10;;;;;;;31.00;12.43;;;3.30;99.90;;;;;;5004582;28;20583;-80
2021/12/06 07:42:38;;;;;;;29.98;12.25;;;3.40;99.90;;;;;;5007174;28;20236;-81
2021/12/06 07:45:08;;;;;;;30.85;12.05;;;3.50;99.90;;;;;;5008319;28;20201;-80
2021/12/06 07:47:37;;;;;;;25.23;11.60;;;3.40;99.90;;;;;;5001251;28;20383;-81
2021/12/06 07:50:06;;;;;;;25.30;11.40;;;3.40;99.90;;;;;;5000732;28;20287;-81
2021/12/06 07:52:33;;;;;;;28.55;11.27;;;3.40;99.90;;;;;;5003676;28;20252;-79
2021/12/06 07:55:01;;;;;;;22.67;10.55;;;3.40;99.90;;;;;;5001572;28;20212;-81
2021/12/06 07:57:29;;;;;;;27.70;11.23;;;3.50;99.90;;;;;;5002801;28;20659;-80
2021/12/06 07:59:58;;;;;;;28.45;12.05;;;3.40;99.90;;;;;;4999860;28;20231;-80
2021/12/06 08:02:25;;;;;;;21.23;11.23;;;3.30;99.90;;;;;;4998476;28;20262;-79
2021/12/06 08:05:04;;;;;;;18.02;10.80;;;3.30;99.90;;;;;;4999549;28;20289;-79
2021/12/06 08:07:31;;;;;;;24.70;11.10;;;3.30;99.90;;;;;;5004198;28;20540;-79
2021/12/06 08:09:58;;;;;;;23.88;10.48;;;3.40;99.90;;;;;;5006474;28;20264;-79
2021/12/06 08:12:24;;;;;;;25.48;10.38;;;3.40;99.90;;;;;;5003334;28;20248;-80
2021/12/06 08:14:51;;;;;;;22.23;10.90;;;3.40;99.90;;;;;;5003218;28;20586;-80
2021/12/06 08:17:19;;;;;;;21.23;10.38;;;3.50;99.90;;;;;;5003534;28;20240;-79
2021/12/06 08:19:46;;;;;;;28.75;10.80;;;3.50;99.90;;;;;;5006917;28;20211;-80
2021/12/06 08:22:13;;;;;;;20.50;9.18;;;3.50;99.90;;;;;;5005482;28;20597;-79
2021/12/06 08:24:40;;;;;;;22.35;9.30;;;3.50;99.90;;;;;;5005523;28;20324;-79
2021/12/06 08:27:07;;;;;;;18.85;9.40;;;3.50;99.90;;;;;;5004205;28;20218;-78
2021/12/06 08:29:34;;;;;;;22.65;9.38;;;3.60;99.90;;;;;;5004755;28;20235;-79
2021/12/06 08:32:01;;;;;;;21.15;9.57;;;3.60;99.90;;;;;;5006427;28;20346;-79
2021/12/06 08:34:29;;;;;;;22.77;10.05;;;3.60;99.90;;;;;;5014692;28;20213;-79
2021/12/06 08:36:56;;;;;;;23.20;10.07;;;3.70;99.90;;;;;;5006966;28;20240;-79
2021/12/06 08:39:23;;;;;;;20.50;8.50;;;3.60;99.90;;;;;;5001191;28;20215;-77
2021/12/06 08:41:50;;;;;;;22.35;8.52;;;3.70;99.90;;;;;;5005034;28;20229;-78
2021/12/06 08:44:17;;;;;;;19.70;8.38;;;3.70;99.90;;;;;;5003146;28;20228;-80
2021/12/06 08:46:44;;;;;;;15.20;7.55;;;3.70;99.90;;;;;;4999884;28;20295;-79
2021/12/06 08:49:12;;;;;;;19.30;8.60;;;3.70;99.90;;;;;;4999522;28;20216;-79
2021/12/06 08:51:44;;;;;;;12.38;8.20;;;3.70;99.90;;;;;;5001696;28;20232;-79
2021/12/06 08:54:14;;;;;;;20.73;8.18;;;3.80;99.90;;;;;;5008722;28;20212;-78
2021/12/06 08:56:42;;;;;;;18.73;9.35;;;3.80;99.90;;;;;;5008551;28;20218;-81
2021/12/06 08:59:09;;;;;;;17.52;7.65;;;3.90;99.90;;;;;;5009746;28;20288;-77
2021/12/06 09:01:37;;;;;;;13.95;8.05;;;4.00;99.90;;;;;;5009112;28;20251;-77
2021/12/06 09:04:08;;;;;;;16.17;7.70;;;4.00;99.90;;;;;;5006792;28;20256;-79
2021/12/06 09:06:36;;;;;;;17.45;8.00;;;4.00;99.90;;;;;;5000550;28;20209;-78
2021/12/06 09:09:08;;;;;;;18.98;8.23;;;4.10;99.90;;;;;;4999542;28;20664;-78
2021/12/06 09:11:36;;;;;;;15.85;8.40;;;4.10;99.90;;;;;;5000839;28;20275;-80
2021/12/06 09:14:03;;;;;;;18.33;9.10;;;4.10;99.90;;;;;;5001005;28;20204;-79
2021/12/06 09:16:30;;;;;;;13.50;7.40;;;4.20;99.90;;;;;;5000740;28;20211;-78
2021/12/06 09:18:58;;;;;;;16.48;8.45;;;4.20;99.60;;;;;;5003100;28;20205;-79
2021/12/06 09:21:25;;;;;;;12.82;7.63;;;4.20;99.70;;;;;;5009344;28;20248;-79
2021/12/06 09:23:54;;;;;;;16.45;8.85;;;4.10;98.70;;;;;;5014586;28;20208;-78
2021/12/06 09:26:22;;;;;;;19.08;9.30;;;4.10;98.60;;;;;;5013388;28;20220;-78
2021/12/06 09:28:49;;;;;;;17.90;10.00;;;4.10;98.70;;;;;;5011436;28;20213;-79
2021/12/06 09:31:19;;;;;;;18.38;9.75;;;4.00;99.00;;;;;;5012331;28;20233;-78
2021/12/06 09:33:45;;;;;;;16.85;9.13;;;4.10;99.40;;;;;;5014470;28;20308;-77
2021/12/06 09:36:14;;;;;;;17.40;9.80;;;4.00;99.40;;;;;;5014673;28;20211;-78
2021/12/06 09:38:42;;;;;;;21.30;10.32;;;4.10;99.90;;;;;;5014997;28;20689;-79
2021/12/06 09:41:18;;;;;;;17.55;9.68;;;4.10;99.90;;;;;;5011086;28;20232;-77
2021/12/06 09:43:48;;;;;;;17.45;9.05;;;4.10;99.90;;;;;;5012137;28;20226;-80
2021/12/06 09:46:15;;;;;;;14.88;8.60;;;4.20;99.90;;;;;;5010211;28;20234;-78
2021/12/06 09:48:45;;;;;;;15.73;9.38;;;4.30;99.90;;;;;;5008723;28;20240;-79
2021/12/06 09:51:16;;;;;;;11.95;8.50;;;4.30;99.00;;;;;;5007839;28;20229;-81
2021/12/06 09:53:45;;;;;;;15.88;10.10;;;4.30;98.40;;;;;;5007112;28;20205;-80
2021/12/06 09:56:15;;;;;;;15.98;9.70;;;4.30;98.40;;;;;;5008767;28;20220;-81
2021/12/06 09:58:42;;;;;;;15.60;9.25;;;4.30;98.20;;;;;;5011442;28;20217;-79
2021/12/06 10:01:15;;;;;;;19.85;10.63;;;4.30;98.00;;;;;;5010448;28;20237;-80
2021/12/06 10:03:46;;;;;;;19.75;10.82;;;4.20;97.80;;;;;;5011441;28;20237;-79
2021/12/06 10:06:14;;;;;;;18.85;10.70;;;4.30;98.10;;;;;;5011730;28;20197;-79
2021/12/06 10:08:44;;;;;;;20.83;13.13;;;4.30;98.30;;;;;;5011470;28;20275;-78
2021/12/06 10:11:13;;;;;;;20.40;12.43;;;4.30;99.10;;;;;;5015294;28;20289;-80
2021/12/06 10:13:41;;;;;;;24.42;12.38;;;4.30;99.10;;;;;;5011137;28;20222;-79
2021/12/06 10:16:10;;;;;;;21.95;13.10;;;4.20;99.10;;;;;;5006229;28;20216;-80
2021/12/06 10:18:38;;;;;;;17.85;11.43;;;4.30;99.70;;;;;;5006723;28;20212;-80
2021/12/06 10:21:06;;;;;;;20.58;12.82;;;4.30;99.30;;;;;;5009491;28;20299;-79
2021/12/06 10:23:36;;;;;;;19.45;12.30;;;4.30;99.40;;;;;;5014212;28;20215;-79
2021/12/06 10:26:05;;;;;;;19.75;12.70;;;4.50;99.40;;;;;;5007900;28;20219;-79
2021/12/06 10:28:31;;;;;;;19.35;12.85;;;4.50;99.40;;;;;;4999574;28;20215;-80
2021/12/06 10:31:01;;;;;;;22.60;13.80;;;4.60;99.10;;;;;;5002069;28;20301;-80
2021/12/06 10:33:31;;;;;;;18.63;13.40;;;4.60;98.50;;;;;;5001335;28;20299;-80
2021/12/06 10:36:02;;;;;;;18.30;12.70;;;4.70;98.40;;;;;;4997183;28;20324;-80
2021/12/06 10:38:33;;;;;;;18.40;12.52;;;4.80;98.30;;;;;;4996860;28;20213;-80
2021/12/06 10:41:03;;;;;;;18.85;13.95;;;4.90;97.60;;;;;;4997340;28;20315;-80
2021/12/06 10:43:30;;;;;;;15.13;11.43;;;4.90;96.60;;;;;;4995908;28;20216;-78
2021/12/06 10:45:58;;;;;;;18.75;14.18;;;5.10;95.80;;;;;;4996408;28;20226;-80
2021/12/06 10:48:27;;;;;;;20.05;11.02;;;5.10;95.10;;;;;;4996163;28;20214;-79
2021/12/06 10:51:01;;;;;;;13.68;11.65;;;5.10;94.20;;;;;;4995257;28;20208;-79
2021/12/06 10:53:35;;;;;;;21.80;12.02;;;5.10;93.30;;;;;;4996157;28;20211;-80
2021/12/06 10:56:02;;;;;;;15.93;11.32;;;5.20;93.50;;;;;;4996268;28;20252;-79
2021/12/06 10:58:31;;;;;;;14.95;11.52;;;5.30;93.40;;;;;;4996313;28;20634;-78
2021/12/06 11:03:31;;;;;;;16.90;10.75;;;5.30;91.70;;;;;;4999006;28;20223;-79
2021/12/06 11:06:03;;;;;;;16.67;10.35;;;5.20;90.60;;;;;;4996874;28;20763;-78
2021/12/06 11:08:31;;;;;;;14.63;9.50;;;5.40;90.90;;;;;;4997066;28;20208;-78
2021/12/06 11:11:02;;;;;;;12.82;10.40;;;5.50;90.00;;;;;;5006615;28;20740;-77
2021/12/06 11:13:33;;;;;;;12.27;9.80;;;5.60;89.10;;;;;;5027530;28;20211;-77
2021/12/06 11:16:20;;;;;;;12.38;8.75;;;5.60;88.10;;;;;;5027567;28;20262;-79
2021/12/06 11:18:50;;;;;;;13.35;8.85;;;5.60;85.30;;;;;;5031857;28;20216;-79
2021/12/06 11:21:29;;;;;;;13.63;9.27;;;5.60;84.40;;;;;;5030833;28;20266;-79
2021/12/06 11:24:01;;;;;;;12.07;9.05;;;5.70;84.10;;;;;;5026887;28;20211;-80
2021/12/06 11:26:28;;;;;;;11.25;8.68;;;5.70;83.90;;;;;;5023725;28;20287;-79
2021/12/06 11:28:56;;;;;;;14.95;9.90;;;5.60;82.90;;;;;;5026074;28;20214;-77
2021/12/06 11:31:23;;;;;;;12.20;9.50;;;5.50;83.50;;;;;;5026454;28;20234;-78
2021/12/06 11:33:59;;;;;;;12.70;8.70;;;5.50;83.40;;;;;;5026021;28;20238;-79
2021/12/06 11:36:30;;;;;;;14.27;8.80;;;5.40;83.80;;;;;;5029014;28;20204;-80
2021/12/06 11:39:02;;;;;;;8.88;7.70;;;5.40;83.40;;;;;;5028002;28;20203;-80
2021/12/06 11:41:30;;;;;;;10.15;7.57;;;5.40;81.70;;;;;;5020106;28;20282;-77
2021/12/06 11:43:58;;;;;;;10.45;7.55;;;5.40;81.70;;;;;;5015470;28;20230;-78
2021/12/06 11:46:31;;;;;;;11.20;7.57;;;5.40;81.50;;;;;;5019580;28;20258;-79
2021/12/06 11:48:58;;;;;;;9.57;7.93;;;5.30;80.60;;;;;;5016675;28;20270;-79
2021/12/06 11:51:29;;;;;;;12.15;9.55;;;5.30;80.60;;;;;;5017835;28;20315;-80
2021/12/06 11:53:58;;;;;;;11.00;8.35;;;5.30;81.00;;;;;;5025668;28;20574;-79
2021/12/06 11:56:28;;;;;;;10.07;8.13;;;5.40;81.70;;;;;;5026144;28;20231;-79
2021/12/06 11:58:57;;;;;;;12.68;8.60;;;5.30;79.30;;;;;;5022215;28;20302;-79
2021/12/06 12:01:26;;;;;;;11.98;8.15;;;5.30;78.90;;;;;;5022432;28;20242;-79
2021/12/06 12:03:56;;;;;;;11.70;7.82;;;5.10;78.10;;;;;;5039315;28;20253;-79
2021/12/06 12:06:27;;;;;;;11.85;9.05;;;5.10;78.50;;;;;;5039838;28;20207;-79
2021/12/06 12:09:11;;;;;;;15.88;9.23;;;5.00;78.90;;;;;;5039462;28;20223;-79
2021/12/06 12:12:00;;;;;;;12.02;7.70;;;4.90;81.30;;;;;;5038974;28;20674;-79
2021/12/06 12:14:30;;;;;;;11.82;7.38;;;5.00;80.90;;;;;;5039268;28;20249;-78
2021/12/06 12:16:57;;;;;;;11.52;7.80;;;5.00;81.20;;;;;;5041452;28;20211;-79
2021/12/06 12:19:24;;;;;;;9.18;7.38;;;5.10;81.40;;;;;;5039953;28;20234;-80
2021/12/06 12:21:51;;;;;;;12.65;7.45;;;5.10;80.80;;;;;;5039132;28;20231;-77
2021/12/06 12:24:20;;;;;;;9.50;7.18;;;5.10;79.00;;;;;;5038805;28;20763;-79
2021/12/06 12:26:57;;;;;;;12.65;7.63;;;5.20;78.80;;;;;;5039766;28;20203;-77
2021/12/06 12:29:27;;;;;;;10.07;6.95;;;5.10;77.90;;;;;;5022374;28;20234;-78
2021/12/06 12:31:58;;;;;;;10.30;6.78;;;5.10;77.70;;;;;;5023978;28;20232;-78
2021/12/06 12:34:28;;;;;;;10.77;6.65;;;5.10;76.90;;;;;;5021195;28;20283;-80
2021/12/06 12:36:56;;;;;;;7.72;5.60;;;5.10;77.00;;;;;;5023478;28;20219;-77
2021/12/06 12:39:25;;;;;;;10.00;5.38;;;5.00;76.10;;;;;;5044683;28;20211;-77
2021/12/06 12:41:56;;;;;;;8.77;5.20;;;5.10;75.10;;;;;;5048241;28;20235;-79
2021/12/06 12:44:24;;;;;;;6.28;4.32;;;5.10;73.70;;;;;;5047564;28;20228;-80
2021/12/06 12:46:53;;;;;;;6.95;5.13;;;5.20;73.20;;;;;;5034837;28;20282;-80
2021/12/06 12:49:30;;;;;;;10.45;5.53;;;5.20;73.20;;;;;;5036188;28;20208;-79
2021/12/06 12:51:58;;;;;;;6.78;3.90;;;5.30;73.30;;;;;;5025616;28;20251;-80
2021/12/06 12:54:28;;;;;;;6.70;4.53;;;5.30;70.00;;;;;;5026693;28;20216;-80
2021/12/06 12:56:59;;;;;;;11.43;6.00;;;5.30;70.20;;;;;;5022635;28;20208;-78
2021/12/06 12:59:32;;;;;;;6.72;5.45;;;5.30;70.60;;;;;;5018617;28;20259;-78
2021/12/06 13:02:30;;;;;;;7.47;4.93;;;5.30;70.60;;;;;;5018864;28;20286;-79
2021/12/06 13:05:26;;;;;;;8.13;4.50;;;5.30;69.60;;;;;;5019879;28;20252;-79
2021/12/06 13:08:06;;;;;;;6.68;5.50;;;5.30;70.00;;;;;;5020592;28;20204;-81